KCNU/CNU METAR and TAF weather

Enter ICAO airport designator
Station Type Date Time Source
KCNU METAR 2018/01/22 11:52 UTC NOAA

KCNU 221152Z AUTO 20013KT 10SM OVC042 03/M01 A2955 RMK AO2 SLP005 7//// T00331006 10128 20028 $


Station Type Date Time Source
KCNU Decoded METAR 2018/01/22 11:52 UTC NOAA

CHANUTE JOHNSON AIRPORT, KS, United States (KCNU) 37-40N 95-29W 297M
Jan 22, 2018 - 06:52 AM EST / 2018.01.22 1152 UTC
Wind: from the SSW (200 degrees) at 15 MPH (13 KT):0
Visibility: 10 mile(s):0
Sky conditions: overcast
Temperature: 37.9 F (3.3 C)
Dew Point: 30.9 F (-0.6 C)
Relative Humidity: 75%
Pressure (altimeter): 29.55 in. Hg (1000 hPa)
ob: KCNU 221152Z AUTO 20013KT 10SM OVC042 03/M01 A2955 RMK AO2 SLP005 7//// T00331006 10128 20028
cycle: 12

Station Type Date Time Source
KCNU TAF 2018/01/22 18:46 UTC NOAA

TAF
AMD KCNU 221744Z 2218/2318 26020KT P6SM OVC020
FM222200 28023G31KT P6SM OVC025
FM230100 30016KT P6SM BKN030
FM230300 30015G23KT P6SM BKN035
FM230500 30014KT P6SM SCT070
FM231100 31009KT P6SM FEW250
AMD NOT SKED


Example: see airport list